sensor_id;sensor_type;location;lat;lon;timestamp;P1;durP1;ratioP1;P2;durP2;ratioP2
10260;SDS011;5175;42.606;23.388;2023-08-30T00:01:29;12.32;;;10.98;;
10260;SDS011;5175;42.606;23.388;2023-08-30T00:03:56;12.88;;;11.20;;
10260;SDS011;5175;42.606;23.388;2023-08-30T00:06:22;13.38;;;10.85;;
10260;SDS011;5175;42.606;23.388;2023-08-30T00:08:49;11.75;;;10.55;;
10260;SDS011;5175;42.606;23.388;2023-08-30T00:11:18;13.90;;;11.60;;
10260;SDS011;5175;42.606;23.388;2023-08-30T00:13:44;13.50;;;12.02;;
10260;SDS011;5175;42.606;23.388;2023-08-30T00:16:13;13.18;;;11.75;;
10260;SDS011;5175;42.606;23.388;2023-08-30T00:18:41;14.15;;;11.73;;
10260;SDS011;5175;42.606;23.388;2023-08-30T00:21:09;13.18;;;11.82;;
10260;SDS011;5175;42.606;23.388;2023-08-30T00:23:36;13.07;;;11.68;;
10260;SDS011;5175;42.606;23.388;2023-08-30T00:26:03;13.23;;;11.90;;
10260;SDS011;5175;42.606;23.388;2023-08-30T00:28:31;13.18;;;11.77;;
10260;SDS011;5175;42.606;23.388;2023-08-30T00:30:57;13.25;;;11.45;;
10260;SDS011;5175;42.606;23.388;2023-08-30T00:33:24;13.93;;;12.52;;
10260;SDS011;5175;42.606;23.388;2023-08-30T00:35:57;13.02;;;11.43;;
10260;SDS011;5175;42.606;23.388;2023-08-30T00:38:25;16.02;;;10.57;;
10260;SDS011;5175;42.606;23.388;2023-08-30T00:40:53;11.57;;;10.38;;
10260;SDS011;5175;42.606;23.388;2023-08-30T00:43:20;11.18;;;10.00;;
10260;SDS011;5175;42.606;23.388;2023-08-30T00:45:47;11.70;;;10.50;;
10260;SDS011;5175;42.606;23.388;2023-08-30T00:48:15;11.88;;;9.68;;
10260;SDS011;5175;42.606;23.388;2023-08-30T00:50:45;12.13;;;10.80;;
10260;SDS011;5175;42.606;23.388;2023-08-30T00:53:12;10.52;;;9.52;;
10260;SDS011;5175;42.606;23.388;2023-08-30T00:55:39;10.50;;;9.40;;
10260;SDS011;5175;42.606;23.388;2023-08-30T00:58:08;13.00;;;10.18;;
10260;SDS011;5175;42.606;23.388;2023-08-30T01:00:36;11.40;;;10.20;;
10260;SDS011;5175;42.606;23.388;2023-08-30T01:03:04;13.52;;;9.85;;
10260;SDS011;5175;42.606;23.388;2023-08-30T01:05:32;11.32;;;10.15;;
10260;SDS011;5175;42.606;23.388;2023-08-30T01:07:58;9.95;;;9.02;;
10260;SDS011;5175;42.606;23.388;2023-08-30T01:10:27;10.48;;;9.13;;
10260;SDS011;5175;42.606;23.388;2023-08-30T01:13:04;9.85;;;8.85;;
10260;SDS011;5175;42.606;23.388;2023-08-30T01:15:35;10.43;;;9.35;;
10260;SDS011;5175;42.606;23.388;2023-08-30T01:18:05;13.55;;;8.95;;
10260;SDS011;5175;42.606;23.388;2023-08-30T01:20:35;13.05;;;10.25;;
10260;SDS011;5175;42.606;23.388;2023-08-30T01:23:05;12.38;;;11.07;;
10260;SDS011;5175;42.606;23.388;2023-08-30T01:25:38;11.05;;;9.65;;
10260;SDS011;5175;42.606;23.388;2023-08-30T01:28:15;10.73;;;9.63;;
10260;SDS011;5175;42.606;23.388;2023-08-30T01:30:45;12.25;;;10.45;;
10260;SDS011;5175;42.606;23.388;2023-08-30T01:33:13;11.75;;;10.52;;
10260;SDS011;5175;42.606;23.388;2023-08-30T01:35:41;12.13;;;10.20;;
10260;SDS011;5175;42.606;23.388;2023-08-30T01:38:08;11.15;;;10.05;;
10260;SDS011;5175;42.606;23.388;2023-08-30T01:40:36;14.00;;;10.35;;
10260;SDS011;5175;42.606;23.388;2023-08-30T01:43:05;17.88;;;11.88;;
10260;SDS011;5175;42.606;23.388;2023-08-30T01:45:35;15.32;;;11.73;;
10260;SDS011;5175;42.606;23.388;2023-08-30T01:48:04;16.15;;;11.18;;
10260;SDS011;5175;42.606;23.388;2023-08-30T01:50:33;11.95;;;10.18;;
10260;SDS011;5175;42.606;23.388;2023-08-30T01:53:00;15.32;;;11.02;;
10260;SDS011;5175;42.606;23.388;2023-08-30T01:55:29;12.52;;;9.93;;
10260;SDS011;5175;42.606;23.388;2023-08-30T01:57:58;13.23;;;10.73;;
10260;SDS011;5175;42.606;23.388;2023-08-30T02:00:25;13.05;;;10.55;;
10260;SDS011;5175;42.606;23.388;2023-08-30T02:02:53;12.95;;;10.20;;
10260;SDS011;5175;42.606;23.388;2023-08-30T02:05:18;13.98;;;10.38;;
10260;SDS011;5175;42.606;23.388;2023-08-30T02:07:47;12.27;;;9.57;;
10260;SDS011;5175;42.606;23.388;2023-08-30T02:10:21;12.15;;;10.38;;
10260;SDS011;5175;42.606;23.388;2023-08-30T02:12:52;11.93;;;10.55;;
10260;SDS011;5175;42.606;23.388;2023-08-30T02:15:20;11.95;;;9.98;;
10260;SDS011;5175;42.606;23.388;2023-08-30T02:17:50;11.43;;;10.23;;
10260;SDS011;5175;42.606;23.388;2023-08-30T02:20:19;10.98;;;9.75;;
10260;SDS011;5175;42.606;23.388;2023-08-30T02:22:46;12.10;;;10.30;;
10260;SDS011;5175;42.606;23.388;2023-08-30T02:25:13;13.25;;;10.45;;
10260;SDS011;5175;42.606;23.388;2023-08-30T02:27:39;10.27;;;9.35;;
10260;SDS011;5175;42.606;23.388;2023-08-30T02:30:06;11.10;;;9.60;;
10260;SDS011;5175;42.606;23.388;2023-08-30T02:32:33;14.00;;;9.27;;
10260;SDS011;5175;42.606;23.388;2023-08-30T02:35:01;11.55;;;9.05;;
10260;SDS011;5175;42.606;23.388;2023-08-30T02:37:28;9.90;;;9.10;;
10260;SDS011;5175;42.606;23.388;2023-08-30T02:39:55;12.85;;;8.98;;
10260;SDS011;5175;42.606;23.388;2023-08-30T02:42:21;13.52;;;9.30;;
10260;SDS011;5175;42.606;23.388;2023-08-30T02:44:48;12.07;;;9.18;;
10260;SDS011;5175;42.606;23.388;2023-08-30T02:47:15;12.45;;;8.93;;
10260;SDS011;5175;42.606;23.388;2023-08-30T02:49:41;10.57;;;9.48;;
10260;SDS011;5175;42.606;23.388;2023-08-30T02:52:09;14.38;;;10.45;;
10260;SDS011;5175;42.606;23.388;2023-08-30T02:54:36;12.30;;;9.98;;
10260;SDS011;5175;42.606;23.388;2023-08-30T02:57:03;11.77;;;10.48;;
10260;SDS011;5175;42.606;23.388;2023-08-30T02:59:30;11.50;;;10.13;;
10260;SDS011;5175;42.606;23.388;2023-08-30T03:01:57;13.93;;;10.35;;
10260;SDS011;5175;42.606;23.388;2023-08-30T03:04:23;11.82;;;10.20;;
10260;SDS011;5175;42.606;23.388;2023-08-30T03:06:50;11.95;;;10.30;;
10260;SDS011;5175;42.606;23.388;2023-08-30T03:09:18;11.23;;;10.13;;
10260;SDS011;5175;42.606;23.388;2023-08-30T03:11:45;11.07;;;9.80;;
10260;SDS011;5175;42.606;23.388;2023-08-30T03:14:11;12.00;;;9.52;;
10260;SDS011;5175;42.606;23.388;2023-08-30T03:16:38;12.23;;;9.77;;
10260;SDS011;5175;42.606;23.388;2023-08-30T03:19:05;13.57;;;9.77;;
10260;SDS011;5175;42.606;23.388;2023-08-30T03:21:32;11.50;;;10.02;;
10260;SDS011;5175;42.606;23.388;2023-08-30T03:23:59;11.23;;;9.57;;
10260;SDS011;5175;42.606;23.388;2023-08-30T03:26:27;11.90;;;9.57;;
10260;SDS011;5175;42.606;23.388;2023-08-30T03:28:54;12.20;;;9.10;;
10260;SDS011;5175;42.606;23.388;2023-08-30T03:31:21;11.20;;;8.43;;
10260;SDS011;5175;42.606;23.388;2023-08-30T03:33:48;10.73;;;8.77;;
10260;SDS011;5175;42.606;23.388;2023-08-30T03:36:16;9.17;;;8.17;;
10260;SDS011;5175;42.606;23.388;2023-08-30T03:38:44;11.18;;;8.85;;
10260;SDS011;5175;42.606;23.388;2023-08-30T03:41:11;9.40;;;8.50;;
10260;SDS011;5175;42.606;23.388;2023-08-30T03:43:39;11.23;;;9.10;;
10260;SDS011;5175;42.606;23.388;2023-08-30T03:46:06;9.33;;;8.43;;
10260;SDS011;5175;42.606;23.388;2023-08-30T03:48:34;9.50;;;8.60;;
10260;SDS011;5175;42.606;23.388;2023-08-30T03:51:01;11.17;;;9.33;;
10260;SDS011;5175;42.606;23.388;2023-08-30T03:53:27;12.03;;;8.43;;
10260;SDS011;5175;42.606;23.388;2023-08-30T03:55:55;11.48;;;8.63;;
10260;SDS011;5175;42.606;23.388;2023-08-30T03:58:21;11.23;;;8.60;;
10260;SDS011;5175;42.606;23.388;2023-08-30T04:00:49;9.32;;;8.27;;
10260;SDS011;5175;42.606;23.388;2023-08-30T04:03:16;13.50;;;7.97;;
10260;SDS011;5175;42.606;23.388;2023-08-30T04:05:43;11.52;;;7.88;;
10260;SDS011;5175;42.606;23.388;2023-08-30T04:08:10;9.77;;;8.13;;
10260;SDS011;5175;42.606;23.388;2023-08-30T04:10:36;13.13;;;8.63;;
10260;SDS011;5175;42.606;23.388;2023-08-30T04:13:04;10.57;;;8.75;;
10260;SDS011;5175;42.606;23.388;2023-08-30T04:15:32;11.65;;;7.97;;
10260;SDS011;5175;42.606;23.388;2023-08-30T04:18:01;8.85;;;7.90;;
10260;SDS011;5175;42.606;23.388;2023-08-30T04:20:28;10.25;;;8.20;;
10260;SDS011;5175;42.606;23.388;2023-08-30T04:22:55;9.57;;;8.10;;
10260;SDS011;5175;42.606;23.388;2023-08-30T04:25:23;10.45;;;9.13;;
10260;SDS011;5175;42.606;23.388;2023-08-30T04:27:49;10.02;;;8.82;;
10260;SDS011;5175;42.606;23.388;2023-08-30T04:30:16;9.43;;;8.55;;
10260;SDS011;5175;42.606;23.388;2023-08-30T04:32:43;9.30;;;8.30;;
10260;SDS011;5175;42.606;23.388;2023-08-30T04:35:11;11.57;;;9.30;;
10260;SDS011;5175;42.606;23.388;2023-08-30T04:37:38;9.55;;;8.55;;
10260;SDS011;5175;42.606;23.388;2023-08-30T04:40:05;10.60;;;8.80;;
10260;SDS011;5175;42.606;23.388;2023-08-30T04:42:34;9.98;;;8.23;;
10260;SDS011;5175;42.606;23.388;2023-08-30T04:45:01;9.38;;;8.40;;
10260;SDS011;5175;42.606;23.388;2023-08-30T04:47:28;10.00;;;8.07;;
10260;SDS011;5175;42.606;23.388;2023-08-30T04:49:55;9.95;;;8.50;;
10260;SDS011;5175;42.606;23.388;2023-08-30T04:52:23;10.95;;;8.15;;
10260;SDS011;5175;42.606;23.388;2023-08-30T04:54:49;10.52;;;8.43;;
10260;SDS011;5175;42.606;23.388;2023-08-30T04:57:16;9.18;;;8.23;;
10260;SDS011;5175;42.606;23.388;2023-08-30T04:59:43;8.88;;;7.97;;
10260;SDS011;5175;42.606;23.388;2023-08-30T05:02:11;9.05;;;8.13;;
10260;SDS011;5175;42.606;23.388;2023-08-30T05:04:39;11.07;;;8.35;;
10260;SDS011;5175;42.606;23.388;2023-08-30T05:07:06;9.32;;;8.38;;
10260;SDS011;5175;42.606;23.388;2023-08-30T05:09:34;9.27;;;8.40;;
10260;SDS011;5175;42.606;23.388;2023-08-30T05:12:00;11.05;;;8.20;;
10260;SDS011;5175;42.606;23.388;2023-08-30T05:14:28;10.63;;;7.63;;
10260;SDS011;5175;42.606;23.388;2023-08-30T05:16:54;9.43;;;8.52;;
10260;SDS011;5175;42.606;23.388;2023-08-30T05:19:21;9.20;;;8.13;;
10260;SDS011;5175;42.606;23.388;2023-08-30T05:21:48;11.32;;;8.68;;
10260;SDS011;5175;42.606;23.388;2023-08-30T05:24:16;10.13;;;8.70;;
10260;SDS011;5175;42.606;23.388;2023-08-30T05:26:45;9.63;;;8.35;;
10260;SDS011;5175;42.606;23.388;2023-08-30T05:29:13;10.93;;;8.75;;
10260;SDS011;5175;42.606;23.388;2023-08-30T05:31:40;9.57;;;8.45;;
10260;SDS011;5175;42.606;23.388;2023-08-30T05:34:07;9.63;;;8.60;;
10260;SDS011;5175;42.606;23.388;2023-08-30T05:36:33;9.38;;;8.00;;
10260;SDS011;5175;42.606;23.388;2023-08-30T05:39:00;9.65;;;8.52;;
10260;SDS011;5175;42.606;23.388;2023-08-30T05:41:28;8.82;;;7.93;;
10260;SDS011;5175;42.606;23.388;2023-08-30T05:43:56;11.88;;;8.57;;
10260;SDS011;5175;42.606;23.388;2023-08-30T05:46:23;9.95;;;8.05;;
10260;SDS011;5175;42.606;23.388;2023-08-30T05:48:50;9.95;;;8.20;;
10260;SDS011;5175;42.606;23.388;2023-08-30T05:51:16;9.02;;;7.78;;
10260;SDS011;5175;42.606;23.388;2023-08-30T05:53:45;9.65;;;7.90;;
10260;SDS011;5175;42.606;23.388;2023-08-30T05:56:11;10.68;;;8.10;;
10260;SDS011;5175;42.606;23.388;2023-08-30T05:58:38;8.45;;;7.50;;
10260;SDS011;5175;42.606;23.388;2023-08-30T06:01:07;9.80;;;7.53;;
10260;SDS011;5175;42.606;23.388;2023-08-30T06:03:33;12.63;;;7.47;;
10260;SDS011;5175;42.606;23.388;2023-08-30T06:06:00;8.73;;;7.32;;
10260;SDS011;5175;42.606;23.388;2023-08-30T06:08:28;8.80;;;7.15;;
10260;SDS011;5175;42.606;23.388;2023-08-30T06:10:55;12.95;;;6.78;;
10260;SDS011;5175;42.606;23.388;2023-08-30T06:13:22;7.57;;;6.60;;
10260;SDS011;5175;42.606;23.388;2023-08-30T06:15:50;10.43;;;7.03;;
10260;SDS011;5175;42.606;23.388;2023-08-30T06:18:18;12.00;;;6.50;;
10260;SDS011;5175;42.606;23.388;2023-08-30T06:20:45;9.10;;;6.97;;
10260;SDS011;5175;42.606;23.388;2023-08-30T06:23:12;7.65;;;6.55;;
10260;SDS011;5175;42.606;23.388;2023-08-30T06:25:40;8.00;;;6.55;;
10260;SDS011;5175;42.606;23.388;2023-08-30T06:28:06;8.52;;;6.97;;
10260;SDS011;5175;42.606;23.388;2023-08-30T06:30:33;8.93;;;6.47;;
10260;SDS011;5175;42.606;23.388;2023-08-30T06:33:00;7.55;;;6.85;;
10260;SDS011;5175;42.606;23.388;2023-08-30T06:35:28;7.88;;;6.63;;
10260;SDS011;5175;42.606;23.388;2023-08-30T06:37:55;12.07;;;7.43;;
10260;SDS011;5175;42.606;23.388;2023-08-30T06:40:21;8.52;;;6.32;;
10260;SDS011;5175;42.606;23.388;2023-08-30T06:42:48;8.77;;;6.93;;
10260;SDS011;5175;42.606;23.388;2023-08-30T06:45:15;8.02;;;6.35;;
10260;SDS011;5175;42.606;23.388;2023-08-30T06:47:42;7.82;;;6.70;;
10260;SDS011;5175;42.606;23.388;2023-08-30T06:50:09;7.70;;;6.30;;
10260;SDS011;5175;42.606;23.388;2023-08-30T06:52:37;7.57;;;6.03;;
10260;SDS011;5175;42.606;23.388;2023-08-30T06:55:04;9.10;;;6.70;;
10260;SDS011;5175;42.606;23.388;2023-08-30T06:57:31;7.00;;;6.22;;
10260;SDS011;5175;42.606;23.388;2023-08-30T06:59:58;10.32;;;6.03;;
10260;SDS011;5175;42.606;23.388;2023-08-30T07:02:32;7.00;;;6.28;;
10260;SDS011;5175;42.606;23.388;2023-08-30T07:04:59;8.32;;;6.05;;
10260;SDS011;5175;42.606;23.388;2023-08-30T07:07:26;9.25;;;6.05;;
10260;SDS011;5175;42.606;23.388;2023-08-30T07:09:54;8.70;;;5.97;;
10260;SDS011;5175;42.606;23.388;2023-08-30T07:12:21;6.57;;;5.88;;
10260;SDS011;5175;42.606;23.388;2023-08-30T07:14:48;9.52;;;6.72;;
10260;SDS011;5175;42.606;23.388;2023-08-30T07:17:15;7.50;;;5.68;;
10260;SDS011;5175;42.606;23.388;2023-08-30T07:19:41;6.30;;;5.60;;
10260;SDS011;5175;42.606;23.388;2023-08-30T07:22:08;8.15;;;5.50;;
10260;SDS011;5175;42.606;23.388;2023-08-30T07:24:35;8.48;;;6.10;;
10260;SDS011;5175;42.606;23.388;2023-08-30T07:27:03;7.47;;;5.85;;
10260;SDS011;5175;42.606;23.388;2023-08-30T07:29:31;7.85;;;5.75;;
10260;SDS011;5175;42.606;23.388;2023-08-30T07:31:57;9.65;;;5.90;;
10260;SDS011;5175;42.606;23.388;2023-08-30T07:34:24;8.52;;;5.78;;
10260;SDS011;5175;42.606;23.388;2023-08-30T07:36:53;9.52;;;5.63;;
10260;SDS011;5175;42.606;23.388;2023-08-30T07:39:21;7.47;;;5.07;;
10260;SDS011;5175;42.606;23.388;2023-08-30T07:41:48;9.95;;;5.63;;
10260;SDS011;5175;42.606;23.388;2023-08-30T07:44:16;7.28;;;5.30;;
10260;SDS011;5175;42.606;23.388;2023-08-30T07:46:44;8.82;;;5.18;;
10260;SDS011;5175;42.606;23.388;2023-08-30T07:49:11;7.25;;;4.68;;
10260;SDS011;5175;42.606;23.388;2023-08-30T07:51:38;8.10;;;4.47;;
10260;SDS011;5175;42.606;23.388;2023-08-30T07:54:05;5.88;;;4.35;;
10260;SDS011;5175;42.606;23.388;2023-08-30T07:56:31;7.82;;;4.30;;
10260;SDS011;5175;42.606;23.388;2023-08-30T07:58:58;8.35;;;4.40;;
10260;SDS011;5175;42.606;23.388;2023-08-30T08:01:26;7.57;;;4.40;;
10260;SDS011;5175;42.606;23.388;2023-08-30T08:03:54;8.43;;;3.95;;
10260;SDS011;5175;42.606;23.388;2023-08-30T08:06:20;7.97;;;4.13;;
10260;SDS011;5175;42.606;23.388;2023-08-30T08:08:47;6.07;;;4.55;;
10260;SDS011;5175;42.606;23.388;2023-08-30T08:11:14;31.90;;;25.35;;
10260;SDS011;5175;42.606;23.388;2023-08-30T08:13:40;9.02;;;7.22;;
10260;SDS011;5175;42.606;23.388;2023-08-30T08:16:07;8.07;;;5.07;;
10260;SDS011;5175;42.606;23.388;2023-08-30T08:18:35;6.68;;;4.35;;
10260;SDS011;5175;42.606;23.388;2023-08-30T08:21:02;5.68;;;4.20;;
10260;SDS011;5175;42.606;23.388;2023-08-30T08:23:29;5.65;;;4.45;;
10260;SDS011;5175;42.606;23.388;2023-08-30T08:25:59;7.22;;;4.68;;
10260;SDS011;5175;42.606;23.388;2023-08-30T08:28:27;6.25;;;4.30;;
10260;SDS011;5175;42.606;23.388;2023-08-30T08:30:54;8.80;;;4.25;;
10260;SDS011;5175;42.606;23.388;2023-08-30T08:33:21;7.55;;;4.90;;
10260;SDS011;5175;42.606;23.388;2023-08-30T08:35:50;6.75;;;4.28;;
10260;SDS011;5175;42.606;23.388;2023-08-30T08:38:17;6.13;;;4.18;;
10260;SDS011;5175;42.606;23.388;2023-08-30T08:40:44;7.47;;;4.70;;
10260;SDS011;5175;42.606;23.388;2023-08-30T08:43:11;7.68;;;5.03;;
10260;SDS011;5175;42.606;23.388;2023-08-30T08:45:38;4.90;;;4.35;;
10260;SDS011;5175;42.606;23.388;2023-08-30T08:48:05;7.32;;;4.72;;
10260;SDS011;5175;42.606;23.388;2023-08-30T08:50:33;7.53;;;5.43;;
10260;SDS011;5175;42.606;23.388;2023-08-30T08:53:02;11.25;;;5.85;;
10260;SDS011;5175;42.606;23.388;2023-08-30T08:55:29;7.75;;;5.88;;
10260;SDS011;5175;42.606;23.388;2023-08-30T08:57:57;8.18;;;5.53;;
10260;SDS011;5175;42.606;23.388;2023-08-30T09:00:24;8.10;;;5.55;;
10260;SDS011;5175;42.606;23.388;2023-08-30T09:02:52;6.20;;;5.60;;
10260;SDS011;5175;42.606;23.388;2023-08-30T09:05:20;8.10;;;5.45;;
10260;SDS011;5175;42.606;23.388;2023-08-30T09:07:47;11.98;;;6.38;;
10260;SDS011;5175;42.606;23.388;2023-08-30T09:10:17;8.82;;;5.38;;
10260;SDS011;5175;42.606;23.388;2023-08-30T09:12:44;7.07;;;4.80;;
10260;SDS011;5175;42.606;23.388;2023-08-30T09:15:11;6.57;;;4.22;;
10260;SDS011;5175;42.606;23.388;2023-08-30T09:17:38;8.85;;;5.13;;
10260;SDS011;5175;42.606;23.388;2023-08-30T09:20:09;7.97;;;4.88;;
10260;SDS011;5175;42.606;23.388;2023-08-30T09:22:38;7.25;;;4.63;;
10260;SDS011;5175;42.606;23.388;2023-08-30T09:25:06;6.93;;;4.30;;
10260;SDS011;5175;42.606;23.388;2023-08-30T09:27:35;7.20;;;4.60;;
10260;SDS011;5175;42.606;23.388;2023-08-30T09:30:04;7.72;;;4.55;;
10260;SDS011;5175;42.606;23.388;2023-08-30T09:32:38;9.60;;;5.82;;
10260;SDS011;5175;42.606;23.388;2023-08-30T09:35:05;6.05;;;4.50;;
10260;SDS011;5175;42.606;23.388;2023-08-30T09:37:32;8.05;;;4.63;;
10260;SDS011;5175;42.606;23.388;2023-08-30T09:39:59;5.85;;;4.70;;
10260;SDS011;5175;42.606;23.388;2023-08-30T09:42:26;6.32;;;4.47;;
10260;SDS011;5175;42.606;23.388;2023-08-30T09:44:54;6.13;;;4.47;;
10260;SDS011;5175;42.606;23.388;2023-08-30T09:47:23;7.05;;;4.43;;
10260;SDS011;5175;42.606;23.388;2023-08-30T09:49:51;7.38;;;4.90;;
10260;SDS011;5175;42.606;23.388;2023-08-30T09:52:23;5.18;;;4.50;;
10260;SDS011;5175;42.606;23.388;2023-08-30T09:54:50;5.72;;;4.63;;
10260;SDS011;5175;42.606;23.388;2023-08-30T09:57:18;4.57;;;4.13;;
10260;SDS011;5175;42.606;23.388;2023-08-30T09:59:46;7.03;;;4.97;;
10260;SDS011;5175;42.606;23.388;2023-08-30T10:02:16;7.18;;;4.60;;
10260;SDS011;5175;42.606;23.388;2023-08-30T10:04:44;5.28;;;4.72;;
10260;SDS011;5175;42.606;23.388;2023-08-30T10:07:12;5.45;;;4.85;;
10260;SDS011;5175;42.606;23.388;2023-08-30T10:09:40;8.52;;;4.60;;
10260;SDS011;5175;42.606;23.388;2023-08-30T10:12:07;8.65;;;4.47;;
10260;SDS011;5175;42.606;23.388;2023-08-30T10:14:36;6.38;;;4.72;;
10260;SDS011;5175;42.606;23.388;2023-08-30T10:17:03;8.20;;;4.90;;
10260;SDS011;5175;42.606;23.388;2023-08-30T10:19:35;6.82;;;4.75;;
10260;SDS011;5175;42.606;23.388;2023-08-30T10:22:03;7.25;;;4.57;;
10260;SDS011;5175;42.606;23.388;2023-08-30T10:24:35;5.90;;;4.50;;
10260;SDS011;5175;42.606;23.388;2023-08-30T10:27:06;6.65;;;4.80;;
10260;SDS011;5175;42.606;23.388;2023-08-30T10:29:35;6.55;;;4.75;;
10260;SDS011;5175;42.606;23.388;2023-08-30T10:32:03;7.75;;;4.90;;
10260;SDS011;5175;42.606;23.388;2023-08-30T10:34:31;6.85;;;5.10;;
10260;SDS011;5175;42.606;23.388;2023-08-30T10:37:01;8.07;;;6.68;;
10260;SDS011;5175;42.606;23.388;2023-08-30T10:39:33;5.70;;;5.10;;
10260;SDS011;5175;42.606;23.388;2023-08-30T10:42:06;6.35;;;4.70;;
10260;SDS011;5175;42.606;23.388;2023-08-30T10:44:35;5.25;;;4.80;;
10260;SDS011;5175;42.606;23.388;2023-08-30T10:47:17;6.25;;;4.70;;
10260;SDS011;5175;42.606;23.388;2023-08-30T10:49:46;7.90;;;4.82;;
10260;SDS011;5175;42.606;23.388;2023-08-30T10:52:14;5.18;;;4.70;;
10260;SDS011;5175;42.606;23.388;2023-08-30T10:54:41;5.88;;;4.90;;
10260;SDS011;5175;42.606;23.388;2023-08-30T10:57:12;8.77;;;5.28;;
10260;SDS011;5175;42.606;23.388;2023-08-30T10:59:40;5.80;;;5.20;;
10260;SDS011;5175;42.606;23.388;2023-08-30T11:02:13;6.03;;;5.40;;
10260;SDS011;5175;42.606;23.388;2023-08-30T11:04:41;8.20;;;5.53;;
10260;SDS011;5175;42.606;23.388;2023-08-30T11:07:08;7.32;;;5.00;;
10260;SDS011;5175;42.606;23.388;2023-08-30T11:09:39;7.75;;;5.30;;
10260;SDS011;5175;42.606;23.388;2023-08-30T11:12:06;9.90;;;5.40;;
10260;SDS011;5175;42.606;23.388;2023-08-30T11:14:34;6.68;;;5.45;;
10260;SDS011;5175;42.606;23.388;2023-08-30T11:17:00;8.70;;;5.03;;
10260;SDS011;5175;42.606;23.388;2023-08-30T11:19:29;6.65;;;5.20;;
10260;SDS011;5175;42.606;23.388;2023-08-30T11:21:57;7.18;;;5.43;;
10260;SDS011;5175;42.606;23.388;2023-08-30T11:24:24;6.30;;;5.35;;
10260;SDS011;5175;42.606;23.388;2023-08-30T11:26:53;7.38;;;5.40;;
10260;SDS011;5175;42.606;23.388;2023-08-30T11:29:20;6.72;;;5.25;;
10260;SDS011;5175;42.606;23.388;2023-08-30T11:31:47;7.18;;;5.18;;
10260;SDS011;5175;42.606;23.388;2023-08-30T11:34:15;5.82;;;5.10;;
10260;SDS011;5175;42.606;23.388;2023-08-30T11:36:46;8.20;;;5.20;;
10260;SDS011;5175;42.606;23.388;2023-08-30T11:39:13;8.45;;;5.57;;
10260;SDS011;5175;42.606;23.388;2023-08-30T11:41:40;6.95;;;5.18;;
10260;SDS011;5175;42.606;23.388;2023-08-30T11:44:09;8.43;;;5.90;;
10260;SDS011;5175;42.606;23.388;2023-08-30T11:46:36;5.50;;;4.95;;
10260;SDS011;5175;42.606;23.388;2023-08-30T11:49:02;7.70;;;5.03;;
10260;SDS011;5175;42.606;23.388;2023-08-30T11:51:30;10.75;;;5.28;;
10260;SDS011;5175;42.606;23.388;2023-08-30T11:53:57;6.85;;;5.10;;
10260;SDS011;5175;42.606;23.388;2023-08-30T11:56:27;5.93;;;5.35;;
10260;SDS011;5175;42.606;23.388;2023-08-30T11:58:54;5.47;;;4.90;;
10260;SDS011;5175;42.606;23.388;2023-08-30T12:01:22;6.72;;;5.28;;
10260;SDS011;5175;42.606;23.388;2023-08-30T12:03:49;6.57;;;5.18;;
10260;SDS011;5175;42.606;23.388;2023-08-30T12:06:16;5.93;;;5.22;;
10260;SDS011;5175;42.606;23.388;2023-08-30T12:08:43;6.53;;;5.10;;
10260;SDS011;5175;42.606;23.388;2023-08-30T12:11:17;8.00;;;5.10;;
10260;SDS011;5175;42.606;23.388;2023-08-30T12:13:44;7.80;;;5.40;;
10260;SDS011;5175;42.606;23.388;2023-08-30T12:16:14;6.13;;;5.22;;
10260;SDS011;5175;42.606;23.388;2023-08-30T12:18:43;7.13;;;5.25;;
10260;SDS011;5175;42.606;23.388;2023-08-30T12:21:10;6.35;;;5.30;;
10260;SDS011;5175;42.606;23.388;2023-08-30T12:23:39;6.90;;;5.38;;
10260;SDS011;5175;42.606;23.388;2023-08-30T12:26:07;7.82;;;5.50;;
10260;SDS011;5175;42.606;23.388;2023-08-30T12:28:35;6.40;;;5.60;;
10260;SDS011;5175;42.606;23.388;2023-08-30T12:31:02;7.30;;;5.43;;
10260;SDS011;5175;42.606;23.388;2023-08-30T12:33:30;6.43;;;5.82;;
10260;SDS011;5175;42.606;23.388;2023-08-30T12:35:59;5.97;;;5.38;;
10260;SDS011;5175;42.606;23.388;2023-08-30T12:38:26;6.97;;;5.80;;
10260;SDS011;5175;42.606;23.388;2023-08-30T12:40:53;7.88;;;5.80;;
10260;SDS011;5175;42.606;23.388;2023-08-30T12:43:21;7.00;;;5.50;;
10260;SDS011;5175;42.606;23.388;2023-08-30T12:45:49;7.05;;;5.72;;
10260;SDS011;5175;42.606;23.388;2023-08-30T12:48:17;7.32;;;5.80;;
10260;SDS011;5175;42.606;23.388;2023-08-30T12:50:44;9.02;;;5.82;;
10260;SDS011;5175;42.606;23.388;2023-08-30T12:53:14;7.15;;;5.82;;
10260;SDS011;5175;42.606;23.388;2023-08-30T12:55:42;6.88;;;5.57;;
10260;SDS011;5175;42.606;23.388;2023-08-30T12:58:09;5.85;;;5.20;;
10260;SDS011;5175;42.606;23.388;2023-08-30T13:00:39;6.57;;;5.90;;
10260;SDS011;5175;42.606;23.388;2023-08-30T13:03:05;7.03;;;5.47;;
10260;SDS011;5175;42.606;23.388;2023-08-30T13:05:32;6.35;;;5.75;;
10260;SDS011;5175;42.606;23.388;2023-08-30T13:07:59;6.00;;;5.43;;
10260;SDS011;5175;42.606;23.388;2023-08-30T13:10:28;6.38;;;5.80;;
10260;SDS011;5175;42.606;23.388;2023-08-30T13:12:55;7.82;;;5.97;;
10260;SDS011;5175;42.606;23.388;2023-08-30T13:15:22;7.20;;;5.55;;
10260;SDS011;5175;42.606;23.388;2023-08-30T13:17:49;6.80;;;5.45;;
10260;SDS011;5175;42.606;23.388;2023-08-30T13:20:16;7.70;;;5.97;;
10260;SDS011;5175;42.606;23.388;2023-08-30T13:22:43;6.43;;;5.80;;
10260;SDS011;5175;42.606;23.388;2023-08-30T13:25:10;7.85;;;6.10;;
10260;SDS011;5175;42.606;23.388;2023-08-30T13:27:38;7.38;;;5.68;;
10260;SDS011;5175;42.606;23.388;2023-08-30T13:30:05;6.80;;;5.75;;
10260;SDS011;5175;42.606;23.388;2023-08-30T13:32:33;7.05;;;5.32;;
10260;SDS011;5175;42.606;23.388;2023-08-30T13:35:00;8.93;;;5.40;;
10260;SDS011;5175;42.606;23.388;2023-08-30T13:37:27;7.35;;;5.70;;
10260;SDS011;5175;42.606;23.388;2023-08-30T13:39:53;6.57;;;5.70;;
10260;SDS011;5175;42.606;23.388;2023-08-30T13:42:20;7.18;;;5.63;;
10260;SDS011;5175;42.606;23.388;2023-08-30T13:44:51;5.97;;;5.38;;
10260;SDS011;5175;42.606;23.388;2023-08-30T13:47:18;7.20;;;5.72;;
10260;SDS011;5175;42.606;23.388;2023-08-30T13:49:45;7.05;;;5.43;;
10260;SDS011;5175;42.606;23.388;2023-08-30T13:52:12;7.35;;;5.57;;
10260;SDS011;5175;42.606;23.388;2023-08-30T13:54:39;6.85;;;5.40;;
10260;SDS011;5175;42.606;23.388;2023-08-30T13:57:06;6.88;;;5.40;;
10260;SDS011;5175;42.606;23.388;2023-08-30T13:59:32;7.00;;;5.30;;
10260;SDS011;5175;42.606;23.388;2023-08-30T14:02:02;7.28;;;5.38;;
10260;SDS011;5175;42.606;23.388;2023-08-30T14:04:29;6.82;;;5.05;;
10260;SDS011;5175;42.606;23.388;2023-08-30T14:06:57;6.63;;;5.43;;
10260;SDS011;5175;42.606;23.388;2023-08-30T14:09:24;6.47;;;5.30;;
10260;SDS011;5175;42.606;23.388;2023-08-30T14:11:51;7.05;;;5.45;;
10260;SDS011;5175;42.606;23.388;2023-08-30T14:14:17;7.47;;;5.20;;
10260;SDS011;5175;42.606;23.388;2023-08-30T14:16:44;7.38;;;5.05;;
10260;SDS011;5175;42.606;23.388;2023-08-30T14:19:12;5.25;;;4.72;;
10260;SDS011;5175;42.606;23.388;2023-08-30T14:21:39;6.45;;;4.75;;
10260;SDS011;5175;42.606;23.388;2023-08-30T14:24:06;5.95;;;4.90;;
10260;SDS011;5175;42.606;23.388;2023-08-30T14:26:33;8.60;;;5.07;;
10260;SDS011;5175;42.606;23.388;2023-08-30T14:28:59;6.03;;;4.60;;
10260;SDS011;5175;42.606;23.388;2023-08-30T14:31:26;5.25;;;3.90;;
10260;SDS011;5175;42.606;23.388;2023-08-30T14:33:55;4.65;;;3.80;;
10260;SDS011;5175;42.606;23.388;2023-08-30T14:36:23;4.57;;;3.50;;
10260;SDS011;5175;42.606;23.388;2023-08-30T14:38:50;4.20;;;3.80;;
10260;SDS011;5175;42.606;23.388;2023-08-30T14:41:17;8.98;;;3.70;;
10260;SDS011;5175;42.606;23.388;2023-08-30T14:43:44;6.40;;;3.97;;